EW9518 Weather Reports


Display with metric or nautical units.
time (UTC)temp
F
wind
direction
speed
MPH
gust
MPH
rain 1hr
in
rain 24hr
in
rain mn
in
humidity
%
barometer
mb
20210615034004 70 326 3.0 8.0 0.00 0.15 0.15 89 1012.2
20210615033505 70 325 4.0 8.0 0.00 0.15 0.15 89 1012.1
20210615033026 70 325 3.0 5.0 0.00 0.15 0.15 89 1012.1
20210615032507 70 287 3.0 7.0 0.00 0.15 0.15 89 1012.0
20210615032007 70 299 3.0 7.0 0.00 0.15 0.15 88 1012.0
20210615031505 70 296 3.0 9.0 0.03 0.15 0.15 88 1011.9
20210615031003 70 254 6.0 9.0 0.07 0.15 0.15 88 1011.8
20210615030608 71 249 5.0 9.0 0.12 0.15 0.15 88 1011.9
20210615030133 70 261 5.0 10.0 0.14 0.15 0.15 88 1011.9
20210615025558 71 240 6.0 9.0 0.14 0.15 0.15 88 1011.9
20210615025100 71 270 5.0 12.0 0.14 0.15 0.15 88 1012.1
20210615024743 71 257 4.0 10.0 0.14 0.15 0.15 87 1012.2
20210615024056 72 228 5.0 14.0 0.14 0.15 0.15 85 1012.4
20210615023611 73 145 5.0 17.0 0.14 0.15 0.15 83 1012.6
20210615023151 74 159 7.0 18.0 0.14 0.15 0.15 81 1012.6
20210615022557 74 110 10.0 18.0 0.14 0.15 0.15 82 1012.6
20210615022055 74 140 6.0 17.0 0.14 0.15 0.15 85 1012.9
20210615021641 74 138 6.0 19.0 0.12 0.13 0.13 82 1012.8
20210615021055 75 146 13.0 29.0 0.08 0.09 0.09 76 1012.7
20210615020558 78 131 13.0 29.0 0.02 0.03 0.03 56 1012.7
20210615020140 80 108 4.0 28.0 0.00 0.01 0.01 54 1012.9
20210615015554 81 94 15.0 28.0 0.00 0.01 0.01 58 1013.2
20210615015110 82 40 3.0 8.0 0.00 0.01 0.01 63 1012.5
20210615014618 83 256 3.0 9.0 0.00 0.01 0.01 61 1012.2
20210615014052 84 221 3.0 15.0 0.00 0.01 0.01 60 1012.4
20210615013558 85 242 7.0 15.0 0.00 0.01 0.01 61 1012.2
20210615013148 86 310 0.0 6.0 0.00 0.01 0.01 61 1012.0
20210615012556 86 11 3.0 9.0 0.00 0.01 0.01 60 1011.9
20210615012050 86 27 4.0 9.0 0.00 0.01 0.01 60 1011.8
20210615011642 87 19 2.0 8.0 0.00 0.01 0.01 59 1011.7
20210615011109 87 9 2.0 11.0 0.00 0.01 0.01 58 1011.4
20210615010551 88 5 4.0 11.0 0.00 0.01 0.01 57 1011.3
20210615010159 88 9 5.0 11.0 0.00 0.01 0.01 55 1011.1
20210615005550 88 36 3.0 8.0 0.00 0.01 0.01 54 1011.1
20210615005057 88 55 1.0 8.0 0.00 0.01 0.01 54 1011.1
20210615004618 88 26 4.0 9.0 0.00 0.01 0.01 53 1011.0
20210615004049 88 84 2.0 9.0 0.00 0.01 0.01 53 1011.1
20210615003042 89 355 5.0 12.0 0.00 0.01 0.01 52 1011.1
20210615002522 89 36 4.0 11.0 0.00 0.01 0.01 52 1010.9
20210615002018 89 45 5.0 11.0 0.00 0.01 0.01 52 1010.8
20210615001522 89 38 3.0 8.0 0.00 0.01 0.01 52 1010.7
20210615001024 90 360 3.0 12.0 0.00 0.01 0.01 51 1010.7
20210615000523 90 41 6.0 12.0 0.00 0.01 0.01 51 1010.5
20210615000059 90 360 3.0 14.0 0.00 0.01 0.01 51 1010.4
20210614235516 91 22 6.0 11.0 0.00 0.01 0.01 51 1010.3
20210614235034 91 45 5.0 11.0 0.00 0.01 0.01 50 1010.3
20210614234536 91 5 5.0 11.0 0.00 0.01 0.01 51 1010.3
20210614234021 91 42 2.0 11.0 0.00 0.01 0.01 51 1010.3
20210614233520 91 355 4.0 13.0 0.00 0.01 0.01 50 1010.4
20210614233032 91 42 6.0 13.0 0.00 0.01 0.01 50 1010.5
20210614232536 91 56 4.0 11.0 0.00 0.01 0.01 50 1010.5
20210614232014 91 42 2.0 10.0 0.00 0.01 0.01 51 1010.6
20210614231616 91 5 4.0 10.0 0.00 0.01 0.01 50 1010.5
20210614231012 90 360 2.0 13.0 0.00 0.01 0.01 51 1010.5
20210614230054 90 32 6.0 13.0 0.00 0.01 0.01 51 1010.7
20210614225520 90 51 1.0 8.0 0.00 0.01 0.01 51 1010.7
20210614225019 90 63 2.0 8.0 0.00 0.01 0.01 51 1010.8
20210614224519 89 5 4.0 8.0 0.00 0.01 0.01 52 1010.9
20210614224021 89 10 1.0 8.0 0.00 0.01 0.01 52 1010.9
20210614223516 88 42 2.0 6.0 0.00 0.01 0.01 53 1011.0
20210614223040 88 65 0.0 8.0 0.00 0.01 0.01 53 1011.0
20210614222514 88 360 5.0 8.0 0.00 0.01 0.01 54 1011.0
20210614222013 87 34 3.0 9.0 0.00 0.01 0.01 54 1011.1
20210614221517 87 20 3.0 9.0 0.00 0.01 0.01 54 1011.1
20210614220518 87 279 2.0 6.0 0.00 0.01 0.01 53 1011.1
20210614220010 87 360 1.0 6.0 0.00 0.01 0.01 54 1011.3
20210614215510 87 342 2.0 10.0 0.00 0.01 0.01 55 1011.3
20210614215019 87 312 4.0 10.0 0.00 0.01 0.01 56 1011.3
20210614214517 87 30 4.0 11.0 0.00 0.01 0.01 55 1011.5
20210614214025 87 47 6.0 11.0 0.00 0.01 0.01 54 1011.5
20210614213510 87 48 3.0 10.0 0.00 0.01 0.01 54 1011.4
20210614213034 87 34 4.0 11.0 0.00 0.01 0.01 54 1011.5
20210614212509 88 5 4.0 13.0 0.00 0.01 0.01 54 1011.6
20210614212023 88 13 2.0 9.0 0.00 0.01 0.01 55 1011.5
20210614211523 87 13 4.0 11.0 0.00 0.01 0.01 57 1011.6
20210614211020 87 23 6.0 13.0 0.00 0.01 0.01 56 1011.7
20210614210205 87 51 6.0 13.0 0.00 0.01 0.01 56 1011.7
20210614205100 86 76 5.0 10.0 0.00 0.01 0.01 55 1011.8
20210614204804 86 51 2.0 9.0 0.00 0.01 0.01 57 1011.9
20210614204054 85 9 3.0 12.0 0.00 0.01 0.01 57 1012.0
20210614203554 85 342 4.0 12.0 0.00 0.01 0.01 57 1012.2
20210614203145 84 70 4.0 9.0 0.00 0.01 0.01 59 1012.2
20210614202604 83 355 3.0 9.0 0.00 0.01 0.01 62 1012.3
20210614202059 83 43 4.0 12.0 0.00 0.01 0.01 60 1012.4
20210614201623 82 325 7.0 12.0 0.00 0.01 0.01 62 1012.4
20210614201049 81 340 5.0 14.0 0.00 0.01 0.01 63 1012.6
20210614200553 80 340 7.0 14.0 0.00 0.01 0.01 66 1012.6
20210614200040 80 298 5.0 11.0 0.00 0.01 0.01 66 1012.7
20210614195519 79 355 6.0 11.0 0.00 0.01 0.01 67 1012.8
20210614195017 78 336 5.0 13.0 0.00 0.01 0.01 68 1012.9
20210614194555 78 321 6.0 13.0 0.00 0.01 0.01 69 1013.0
20210614194017 77 267 6.0 13.0 0.00 0.01 0.01 69 1013.0
20210614193517 77 332 6.0 11.0 0.00 0.01 0.01 70 1013.0
20210614193031 77 294 6.0 11.0 0.00 0.01 0.01 72 1013.1
20210614192517 76 273 5.0 13.0 0.00 0.01 0.01 71 1013.2
20210614192011 77 270 5.0 13.0 0.00 0.01 0.01 71 1013.3
20210614191516 77 305 6.0 13.0 0.00 0.01 0.01 69 1013.4
20210614191009 77 311 7.0 13.0 0.00 0.01 0.01 69 1013.6
20210614190507 77 326 5.0 12.0 0.00 0.01 0.01 70 1013.6
20210614190009 76 252 4.0 12.0 0.00 0.01 0.01 71 1013.6
20210614185503 75 286 4.0 10.0 0.00 0.01 0.01 71 1013.7
20210614185005 75 290 4.0 10.0 0.00 0.01 0.01 72 1013.9
20210614184500 75 288 5.0 12.0 0.00 0.01 0.01 73 1014.0
20210614184059 74 317 5.0 12.0 0.00 0.01 0.01 73 1014.1
20210614183558 74 288 4.0 10.0 0.00 0.01 0.01 75 1014.2
20210614183152 74 312 5.0 11.0 0.00 0.01 0.01 76 1014.2
20210614182557 74 317 4.0 11.0 0.00 0.01 0.01 76 1014.3
20210614182050 74 317 4.0 12.0 0.00 0.01 0.01 76 1014.2
20210614181605 74 276 5.0 11.0 0.00 0.01 0.01 77 1014.2
20210614181047 73 320 3.0 11.0 0.00 0.01 0.01 78 1014.1
20210614180603 73 360 5.0 12.0 0.00 0.01 0.01 79 1014.0
20210614180105 72 317 5.0 14.0 0.00 0.01 0.01 80 1013.8
20210614175547 72 351 8.0 14.0 0.00 0.01 0.01 80 1013.7
20210614175047 71 355 5.0 13.0 0.00 0.01 0.01 82 1013.7
20210614174620 71 341 8.0 12.0 0.00 0.01 0.01 82 1013.8
20210614174042 71 355 5.0 12.0 0.00 0.01 0.01 82 1013.8
20210614173540 71 337 6.0 13.0 0.00 0.01 0.01 83 1013.9
20210614173045 71 360 6.0 11.0 0.00 0.01 0.01 83 1013.9
20210614172548 71 339 3.0 9.0 0.00 0.01 0.01 83 1014.0
20210614172044 70 344 4.0 9.0 0.00 0.01 0.01 83 1014.0
20210614171556 70 360 2.0 8.0 0.00 0.01 0.01 84 1014.2
20210614171040 70 5 3.0 8.0 0.00 0.01 0.01 83 1014.2
20210614170541 70 338 4.0 8.0 0.00 0.01 0.01 84 1014.2
20210614170101 70 321 3.0 11.0 0.00 0.01 0.01 84 1014.3
20210614165538 70 5 4.0 11.0 0.00 0.01 0.01 84 1014.4
20210614165109 70 355 4.0 10.0 0.00 0.01 0.01 84 1014.7
20210614164629 70 355 5.0 11.0 0.00 0.01 0.01 85 1014.9
20210614164038 70 28 5.0 10.0 0.00 0.01 0.01 85 1015.0
20210614163539 70 350 4.0 11.0 0.00 0.01 0.01 85 1015.2
20210614163125 70 334 5.0 14.0 0.00 0.01 0.01 84 1015.3
20210614162522 70 348 7.0 17.0 0.00 0.01 0.01 82 1015.5
20210614162021 70 298 9.0 17.0 0.00 0.01 0.01 81 1015.3
20210614161543 70 331 7.0 13.0 0.00 0.01 0.01 81 1015.2
20210614161019 70 308 2.0 8.0 0.00 0.01 0.01 81 1015.0
20210614160517 70 323 4.0 8.0 0.00 0.01 0.01 80 1014.7
20210614160021 70 5 2.0 8.0 0.00 0.01 0.01 81 1014.8
20210614155520 70 311 4.0 8.0 0.00 0.01 0.01 81 1014.5
20210614155018 70 329 3.0 11.0 0.00 0.01 0.01 80 1014.3
20210614154550 70 5 2.0 11.0 0.00 0.01 0.01 80 1014.2
20210614154020 69 360 5.0 10.0 0.00 0.01 0.01 80 1014.4
20210614153514 69 327 2.0 11.0 0.00 0.01 0.01 80 1013.8
20210614153027 70 342 6.0 13.0 0.00 0.01 0.01 79 1014.1
20210614152517 70 333 7.0 17.0 0.00 0.01 0.01 77 1014.5
20210614152008 71 19 8.0 17.0 0.00 0.01 0.01 75 1014.6
20210614151516 72 321 8.0 19.0 0.00 0.01 0.01 72 1014.6
20210614151037 72 341 9.0 25.0 0.00 0.01 0.01 69 1014.3
20210614150505 73 316 15.0 25.0 0.00 0.01 0.01 67 1014.2
20210614150016 73 300 9.0 25.0 0.00 0.01 0.01 68 1014.1
20210614145503 73 311 14.0 26.0 0.00 0.01 0.01 69 1014.2
20210614145002 74 355 15.0 30.0 0.00 0.01 0.01 71 1014.2
20210614144501 74 12 16.0 30.0 0.00 0.01 0.01 77 1014.0
20210614144000 73 25 5.0 8.0 0.00 0.01 0.01 84 1013.1
20210614143600 73 317 2.0 8.0 0.00 0.01 0.01 84 1012.6
20210614143150 73 216 2.0 7.0 0.00 0.01 0.01 84 1012.2
20210614142555 72 164 2.0 7.0 0.00 0.01 0.01 84 1012.0
20210614142054 72 186 4.0 7.0 0.00 0.01 0.01 85 1011.8
20210614141625 72 162 1.0 4.0 0.01 0.01 0.01 85 1012.0
20210614141107 72 176 1.0 4.0 0.01 0.01 0.01 84 1012.3
20210614140649 72 204 0.0 9.0 0.01 0.01 0.01 84 1012.4
20210614140159 72 247 4.0 9.0 0.01 0.01 0.01 84 1012.3
20210614135558 72 245 3.0 5.0 0.01 0.01 0.01 84 1012.4
20210614134645 72 142 2.0 6.0 0.01 0.01 0.01 81 1012.7
20210614134051 72 117 2.0 6.0 0.01 0.01 0.01 80 1012.8
20210614133546 72 33 3.0 9.0 0.01 0.01 0.01 79 1013.1
20210614133124 73 355 3.0 9.0 0.01 0.01 0.01 75 1013.2
20210614132517 73 53 1.0 11.0 0.01 0.01 0.01 75 1013.2
20210614132017 74 15 3.0 23.0 0.00 0.00 0.00 74 1013.3
20210614131537 74 21 6.0 23.0 0.00 0.00 0.00 68 1013.5
20210614131012 75 25 2.0 24.0 0.00 0.00 0.00 70 1013.5
20210614130511 75 22 12.0 24.0 0.00 0.00 0.00 72 1013.5
20210614130052 75 36 13.0 22.0 0.00 0.00 0.00 76 1013.3
20210614125506 75 360 5.0 10.0 0.00 0.00 0.00 78 1012.9
20210614125008 75 5 2.0 4.0 0.00 0.00 0.00 78 1012.2
20210614124521 75 85 0.0 2.0 0.00 0.00 0.00 78 1011.7
20210614124001 75 84 0.0 2.0 0.00 0.00 0.00 78 1011.3
20210614123502 74 84 0.0 2.0 0.00 0.00 0.00 78 1011.3
20210614122600 74 84 1.0 3.0 0.00 0.00 0.00 78 1011.3
20210614122058 74 94 2.0 3.0 0.00 0.00 0.00 78 1011.1
20210614121643 74 120 0.0 1.0 0.00 0.00 0.00 79 1011.1
20210614121057 74 120 0.0 1.0 0.00 0.00 0.00 77 1011.1
20210614120605 74 120 0.0 2.0 0.00 0.00 0.00 77 1010.9
20210614120158 74 186 1.0 2.0 0.00 0.00 0.00 77 1010.8
20210614115553 75 186 0.0 4.0 0.00 0.00 0.00 76 1010.7
20210614115104 75 210 1.0 4.0 0.00 0.00 0.00 75 1010.5
20210614114622 75 171 1.0 5.0 0.00 0.00 0.00 76 1010.3
20210614114051 75 167 2.0 8.0 0.00 0.00 0.00 76 1010.4
20210614113549 75 186 3.0 8.0 0.00 0.00 0.00 76 1010.3
20210614113134 75 136 2.0 5.0 0.00 0.00 0.00 75 1010.4
20210614112553 75 142 2.0 4.0 0.00 0.00 0.00 75 1010.4
20210614112111 75 165 1.0 3.0 0.00 0.00 0.00 74 1010.5
20210614111620 75 140 0.0 0.0 0.00 0.00 0.00 74 1010.5
20210614111047 75 192 0.0 0.0 0.00 0.00 0.00 73 1010.6
20210614110556 75 192 0.0 2.0 0.00 0.00 0.00 72 1010.7
20210614110118 76 192 0.0 2.0 0.00 0.00 0.00 72 1010.7
20210614105544 76 171 0.0 3.0 0.00 0.00 0.00 72 1010.6
20210614105052 76 171 0.0 3.0 0.00 0.00 0.00 72 1010.7
20210614104713 76 149 0.0 4.0 0.00 0.00 0.00 72 1010.6
20210614104050 76 172 2.0 4.0 0.00 0.00 0.00 71 1010.7
20210614103541 76 149 1.0 3.0 0.00 0.00 0.00 71 1010.7
20210614103148 76 162 1.0 4.0 0.00 0.00 0.00 71 1010.7
20210614102550 76 232 1.0 3.0 0.00 0.00 0.00 71 1010.7
20210614102039 76 184 0.0 1.0 0.00 0.00 0.00 70 1010.6
20210614101613 77 184 0.0 2.0 0.00 0.00 0.00 70 1010.5
20210614101040 77 168 0.0 3.0 0.00 0.00 0.00 69 1010.5
20210614100536 77 166 1.0 3.0 0.00 0.00 0.00 69 1010.4
20210614100108 77 140 0.0 3.0 0.00 0.00 0.00 69 1010.5
20210614095550 77 140 0.0 3.0 0.00 0.00 0.00 69 1010.5
20210614095035 78 132 1.0 3.0 0.00 0.00 0.00 68 1010.4
20210614094618 78 173 1.0 4.0 0.00 0.00 0.00 68 1010.4
20210614094037 78 113 1.0 4.0 0.00 0.00 0.00 68 1010.3
20210614093604 78 84 2.0 7.0 0.00 0.00 0.00 68 1010.2
20210614093116 78 94 2.0 7.0 0.00 0.00 0.00 68 1010.2
20210614092550 77 108 2.0 4.0 0.00 0.00 0.00 68 1010.2
20210614092032 77 130 1.0 4.0 0.00 0.00 0.00 68 1010.2
20210614091549 77 137 2.0 4.0 0.00 0.00 0.00 68 1010.2
20210614091031 77 171 0.0 3.0 0.00 0.00 0.00 68 1010.1
20210614090535 78 159 1.0 3.0 0.00 0.00 0.00 68 1010.0
20210614090240 78 92 0.0 2.0 0.00 0.00 0.00 68 1010.0
20210614085529 78 92 1.0 3.0 0.00 0.00 0.00 68 1009.9
20210614084728 78 138 1.0 2.0 0.00 0.00 0.00 67 1010.0
20210614084103 78 138 0.0 3.0 0.00 0.00 0.00 67 1010.0
20210614083620 78 155 1.0 5.0 0.00 0.00 0.00 67 1010.0
20210614083230 78 84 2.0 5.0 0.00 0.00 0.00 67 1009.9
20210614082556 78 129 2.0 7.0 0.00 0.00 0.00 66 1009.9
20210614082055 78 138 2.0 7.0 0.00 0.00 0.00 66 1009.9
20210614081616 79 103 3.0 6.0 0.00 0.00 0.00 66 1010.0
20210614081025 79 114 3.0 6.0 0.00 0.00 0.00 65 1010.0
20210614080526 79 146 3.0 5.0 0.00 0.00 0.00 65 1009.9
20210614080037 79 115 2.0 5.0 0.00 0.00 0.00 65 1009.9
20210614075523 80 212 2.0 6.0 0.00 0.00 0.00 65 1010.0
20210614075023 80 169 2.0 7.0 0.00 0.00 0.00 64 1009.9
20210614074542 80 120 3.0 10.0 0.00 0.00 0.00 64 1009.8
20210614074017 80 144 5.0 10.0 0.00 0.00 0.00 64 1009.9
20210614073526 80 140 4.0 9.0 0.00 0.00 0.00 64 1009.9
20210614073027 80 115 3.0 9.0 0.00 0.00 0.00 65 1010.1
20210614072522 80 130 3.0 9.0 0.00 0.00 0.00 65 1010.2
20210614072016 80 109 2.0 3.0 0.00 0.00 0.00 65 1010.2
20210614071527 80 118 2.0 4.0 0.00 0.00 0.00 64 1010.3
20210614071018 80 137 2.0 4.0 0.00 0.00 0.00 64 1010.3
20210614070513 80 137 2.0 6.0 0.00 0.00 0.00 64 1010.3
20210614070018 80 123 1.0 6.0 0.00 0.00 0.00 63 1010.3
20210614065513 80 112 2.0 5.0 0.00 0.00 0.00 63 1010.3
20210614065012 80 121 2.0 10.0 0.00 0.00 0.00 62 1010.4
20210614064534 80 135 2.0 7.0 0.00 0.00 0.00 62 1010.3
20210614064013 81 143 2.0 10.0 0.00 0.00 0.00 61 1010.5
20210614063508 81 155 6.0 10.0 0.00 0.00 0.00 62 1010.3
20210614063040 81 141 2.0 5.0 0.00 0.00 0.00 61 1010.8
20210614062508 81 101 3.0 6.0 0.00 0.00 0.00 61 1011.0
20210614062009 81 49 2.0 7.0 0.00 0.00 0.00 61 1011.1
20210614061522 82 73 3.0 7.0 0.00 0.00 0.00 60 1011.1
20210614061005 82 86 2.0 6.0 0.00 0.00 0.00 60 1011.1
20210614060502 82 88 3.0 7.0 0.00 0.00 0.00 60 1010.9
20210614060002 82 91 3.0 9.0 0.00 0.00 0.00 59 1010.7
20210614055059 82 102 5.0 11.0 0.00 0.00 0.00 58 1010.5
20210614054752 82 92 4.0 12.0 0.00 0.00 0.00 58 1010.4
20210614054055 83 76 5.0 12.0 0.00 0.00 0.00 58 1010.4
20210614053554 83 111 5.0 12.0 0.00 0.00 0.00 58 1010.4
20210614053126 83 80 5.0 11.0 0.00 0.00 0.00 57 1010.4
20210614052552 83 73 5.0 11.0 0.00 0.00 0.00 57 1010.4
20210614052108 84 83 6.0 13.0 0.00 0.00 0.00 57 1010.3
20210614051641 84 127 8.0 13.0 0.00 0.00 0.00 56 1010.3
20210614051051 84 101 6.0 13.0 0.00 0.00 0.00 56 1010.4
20210614050551 84 110 7.0 13.0 0.00 0.00 0.00 56 1010.4
20210614050118 85 80 5.0 11.0 0.00 0.00 0.00 56 1010.3
20210614045556 85 95 7.0 13.0 0.00 0.00 0.00 56 1010.4
20210614045120 85 84 7.0 13.0 0.00 0.00 0.00 56 1010.4
20210614044620 85 74 5.0 12.0 0.00 0.00 0.00 56 1010.4
20210614044049 85 72 6.0 14.0 0.00 0.00 0.00 56 1010.4
20210614043553 85 77 6.0 16.0 0.00 0.00 0.00 56 1010.3
20210614043219 85 92 7.0 16.0 0.00 0.00 0.00 56 1010.2
20210614042556 85 110 7.0 12.0 0.00 0.00 0.00 56 1010.3
20210614042058 86 105 8.0 12.0 0.00 0.00 0.00 55 1010.3
20210614041614 86 90 6.0 13.0 0.00 0.00 0.00 55 1010.2
20210614041114 86 86 9.0 14.0 0.00 0.00 0.00 54 1010.0
20210614040556 86 90 7.0 14.0 0.00 0.00 0.00 54 1010.0
20210614040150 86 59 5.0 12.0 0.00 0.00 0.00 53 1010.0
20210614035607 87 78 7.0 11.0 0.00 0.00 0.00 53 1010.0
20210614035105 87 49 5.0 11.0 0.00 0.00 0.00 52 1009.9
20210614034654 87 87 7.0 13.0 0.00 0.00 0.00 52 1009.8